Boryslav — ENLB — position and weather

sailwx.info

Track history (hours):
 
Tides and Currents Weather Stations Pressure Air Temp Water Temp Dewpoint Dewpoint Depression Visibility Wind Speed Wind Dir Waves Ship Positions

Boryslav

Last reported at 2017-May-18 20:19 UTC. Time now 2017-May-24 11:36 UTC.
Position N 48°02' E 035°08'.

Length 86 m; draft 1.9 m.

MMSI: 272088700.

Date/timePositionNaut miles runAvg speedWind from/ knotsBaromVisibWave heightAir tempDewpointWater temp
2017-May-18 20:19N 48°02' E 035°08'1 4.6
2017-May-18 20:01N 48°00' E 035°08'2 4.8
2017-May-18 19:31N 47°58' E 035°07'2 4.8
2017-May-18 19:01N 47°55' E 035°07'2 4.6
2017-May-18 18:31N 47°53' E 035°06'1 1.7
2017-May-18 18:00N 47°52' E 035°06'0 0.7
2017-May-18 17:31N 47°52' E 035°06'0 0.7
2017-May-18 17:00N 47°52' E 035°05'1 1.1
2017-May-18 16:30N 47°51' E 035°05'2 4.8
2017-May-18 16:00N 47°50' E 035°07'2 3.4
2017-May-18 15:30N 47°48' E 035°09'0 0.1
2017-May-18 15:00N 47°48' E 035°09'0 0.0
2017-May-18 14:00N 47°48' E 035°09'0 0.6
2017-May-18 13:30N 47°48' E 035°10'0 0.0
2017-May-18 13:00N 47°48' E 035°10'0 0.0
2017-May-18 12:31N 47°48' E 035°10'0 0.0
2017-May-18 12:01N 47°48' E 035°10'0 0.0
2017-May-18 11:31N 47°48' E 035°10'0 0.0
2017-May-18 11:00N 47°48' E 035°10'0 0.0
2017-May-18 10:30N 47°48' E 035°10'0 0.0
2017-May-18 10:01N 47°48' E 035°10'0 0.0
2017-May-18 09:30N 47°48' E 035°10'0 0.0
2017-May-18 09:00N 47°48' E 035°10'0 0.0
2017-May-18 08:30N 47°48' E 035°10'0 0.0
2017-May-18 08:01N 47°48' E 035°10'0 0.0
2017-May-18 07:30N 47°48' E 035°10'1 2.3
2017-May-18 07:00N 47°47' E 035°10'2 4.6
2017-May-18 06:30N 47°45' E 035°10'2 4.6
2017-May-18 06:00N 47°43' E 035°08'2 4.5
2017-May-18 05:29N 47°41' E 035°07'2 4.5
2017-May-18 05:00N 47°39' E 035°06'3 5.2
2017-May-18 04:30N 47°37' E 035°03'3 5.3
2017-May-18 04:00N 47°35' E 035°02'138 3.3
2017-May-16 10:17N 46°32' E 032°01'2 6.7
2017-May-16 10:00N 46°33' E 031°59'3 6.6
2017-May-16 09:30N 46°34' E 031°54'43 6.3
2017-May-16 02:42N 46°31' E 030°52'1 6.7
2017-May-16 02:30N 46°31' E 030°50'3 6.1
2017-May-16 01:57N 46°30' E 030°46'1 1.9
2017-May-16 01:30N 46°29' E 030°45'0 0.0
2017-May-16 01:00N 46°29' E 030°45'0 0.0
2017-May-16 00:30N 46°29' E 030°45'0 0.0
2017-May-16 00:00N 46°29' E 030°45'0 0.0
2017-May-15 23:30N 46°29' E 030°45'0 0.0
2017-May-15 23:00N 46°29' E 030°45'0 0.0
2017-May-15 22:30N 46°29' E 030°45'0 0.0
2017-May-15 22:00N 46°29' E 030°45'0 0.0
2017-May-15 21:30N 46°29' E 030°45'0 0.0
2017-May-15 21:00N 46°29' E 030°45'0 0.0
2017-May-15 20:30N 46°29' E 030°45'0 0.0
2017-May-15 20:00N 46°29' E 030°45'0 0.0
2017-May-15 19:30N 46°29' E 030°45'0 0.0
2017-May-15 19:01N 46°29' E 030°45'0 0.0
2017-May-15 18:28N 46°29' E 030°45'0 0.0
2017-May-15 17:59N 46°29' E 030°45'0 0.0
2017-May-15 17:31N 46°29' E 030°45'0 0.0
2017-May-15 16:50N 46°29' E 030°45'0 0.0
2017-May-15 16:30N 46°29' E 030°45'0 0.0
2017-May-15 16:00N 46°29' E 030°45'0 0.0
2017-May-15 15:30N 46°29' E 030°45'0 0.0
2017-May-15 15:00N 46°29' E 030°45'0 0.0
2017-May-15 14:30N 46°29' E 030°45'0 0.0
2017-May-15 13:31N 46°29' E 030°45'0 0.0
2017-May-15 13:00N 46°29' E 030°45'0 0.0
2017-May-15 12:30N 46°29' E 030°45'0 0.0
2017-May-15 12:00N 46°29' E 030°45'0 0.0
2017-May-15 11:30N 46°29' E 030°45'0 0.0
2017-May-15 11:00N 46°29' E 030°45'0 0.0
2017-May-15 10:30N 46°29' E 030°45'0 0.0
2017-May-15 10:00N 46°29' E 030°45'0 0.0
2017-May-15 09:30N 46°29' E 030°45'0 0.0
2017-May-15 09:00N 46°29' E 030°45'0 0.0
2017-May-15 08:31N 46°29' E 030°45'0 0.0
2017-May-15 07:59N 46°29' E 030°45'0 0.0
2017-May-15 07:30N 46°29' E 030°45'0 0.0
2017-May-15 07:01N 46°29' E 030°45'1 1.1
2017-May-15 06:30N 46°30' E 030°45'1 2.3
2017-May-15 06:00N 46°31' E 030°46'0 0.0
2017-May-15 05:30N 46°31' E 030°46'0 0.0
2017-May-15 05:00N 46°31' E 030°46'0 0.0
2017-May-15 04:30N 46°31' E 030°46'0 0.8
2017-May-15 04:00N 46°31' E 030°47'2 3.5
2017-May-15 03:27N 46°31' E 030°50'37 3.6
2017-May-14 17:00N 46°36' E 031°43'0 0.0
2017-May-14 16:25N 46°36' E 031°43'0 0.0
2017-May-14 15:32N 46°36' E 031°43'0 0.1
2017-May-14 15:29N 46°36' E 031°43'6 0.8
2017-May-14 08:07N 46°35' E 031°51'1 6.5
2017-May-14 08:00N 46°35' E 031°52'3 6.6
2017-May-14 07:29N 46°34' E 031°57'140 2.7
2017-May-12 04:22N 47°35' E 035°02'1 4.0
2017-May-12 04:00N 47°36' E 035°03'3 4.1
2017-May-12 03:15N 47°38' E 035°05'1 4.3
2017-May-12 03:00N 47°39' E 035°07'2 4.4
2017-May-12 02:30N 47°41' E 035°08'2 4.4
2017-May-12 02:00N 47°43' E 035°09'2 4.3
2017-May-12 01:30N 47°45' E 035°10'2 4.2
2017-May-12 01:00N 47°47' E 035°10'1 2.7
2017-May-12 00:30N 47°49' E 035°09'0 0.1
2017-May-12 00:00N 47°49' E 035°09'0 0.0
2017-May-11 23:30N 47°49' E 035°09'0 0.0
2017-May-11 23:00N 47°49' E 035°09'0 0.0
2017-May-11 22:30N 47°49' E 035°09'0 0.1
2017-May-11 22:00N 47°49' E 035°09'2 3.7
2017-May-11 21:30N 47°50' E 035°07'2 4.5
2017-May-11 21:00N 47°52' E 035°05'0 0.9
2017-May-11 20:30N 47°52' E 035°06'0 0.3
2017-May-11 20:00N 47°52' E 035°06'1 1.7
2017-May-11 19:30N 47°53' E 035°06'0 0.7
2017-May-11 19:00N 47°53' E 035°06'2 4.0
2017-May-11 18:30N 47°55' E 035°07'2 4.2
2017-May-11 18:00N 47°57' E 035°07'2 4.2
2017-May-11 17:30N 47°59' E 035°08'2 4.1
2017-May-11 17:00N 48°01' E 035°08'2 4.2
2017-May-11 16:30N 48°03' E 035°06'  
Track history (hours):
 
Tides and Currents Weather Stations Pressure Air Temp Water Temp Dewpoint Dewpoint Depression Visibility Wind Speed Wind Dir Waves Ship Positions

Boryslav

Last reported at 2017-May-18 20:19 UTC. Time now 2017-May-24 11:36 UTC.
Position N 48°02' E 035°08'.

Length 86 m; draft 1.9 m.

MMSI: 272088700.

Date/timePositionNaut miles runAvg speedWind from/ knotsBaromVisibWave heightAir tempDewpointWater temp
2017-May-18 20:19N 48°02' E 035°08'1 4.6
2017-May-18 20:01N 48°00' E 035°08'2 4.8
2017-May-18 19:31N 47°58' E 035°07'2 4.8
2017-May-18 19:01N 47°55' E 035°07'2 4.6
2017-May-18 18:31N 47°53' E 035°06'1 1.7
2017-May-18 18:00N 47°52' E 035°06'0 0.7
2017-May-18 17:31N 47°52' E 035°06'0 0.7
2017-May-18 17:00N 47°52' E 035°05'1 1.1
2017-May-18 16:30N 47°51' E 035°05'2 4.8
2017-May-18 16:00N 47°50' E 035°07'2 3.4
2017-May-18 15:30N 47°48' E 035°09'0 0.1
2017-May-18 15:00N 47°48' E 035°09'0 0.0
2017-May-18 14:00N 47°48' E 035°09'0 0.6
2017-May-18 13:30N 47°48' E 035°10'0 0.0
2017-May-18 13:00N 47°48' E 035°10'0 0.0
2017-May-18 12:31N 47°48' E 035°10'0 0.0
2017-May-18 12:01N 47°48' E 035°10'0 0.0
2017-May-18 11:31N 47°48' E 035°10'0 0.0
2017-May-18 11:00N 47°48' E 035°10'0 0.0
2017-May-18 10:30N 47°48' E 035°10'0 0.0
2017-May-18 10:01N 47°48' E 035°10'0 0.0
2017-May-18 09:30N 47°48' E 035°10'0 0.0
2017-May-18 09:00N 47°48' E 035°10'0 0.0
2017-May-18 08:30N 47°48' E 035°10'0 0.0
2017-May-18 08:01N 47°48' E 035°10'0 0.0
2017-May-18 07:30N 47°48' E 035°10'1 2.3
2017-May-18 07:00N 47°47' E 035°10'2 4.6
2017-May-18 06:30N 47°45' E 035°10'2 4.6
2017-May-18 06:00N 47°43' E 035°08'2 4.5
2017-May-18 05:29N 47°41' E 035°07'2 4.5
2017-May-18 05:00N 47°39' E 035°06'3 5.2
2017-May-18 04:30N 47°37' E 035°03'3 5.3
2017-May-18 04:00N 47°35' E 035°02'138 3.3
2017-May-16 10:17N 46°32' E 032°01'2 6.7
2017-May-16 10:00N 46°33' E 031°59'3 6.6
2017-May-16 09:30N 46°34' E 031°54'43 6.3
2017-May-16 02:42N 46°31' E 030°52'1 6.7
2017-May-16 02:30N 46°31' E 030°50'3 6.1
2017-May-16 01:57N 46°30' E 030°46'1 1.9
2017-May-16 01:30N 46°29' E 030°45'0 0.0
2017-May-16 01:00N 46°29' E 030°45'0 0.0
2017-May-16 00:30N 46°29' E 030°45'0 0.0
2017-May-16 00:00N 46°29' E 030°45'0 0.0
2017-May-15 23:30N 46°29' E 030°45'0 0.0
2017-May-15 23:00N 46°29' E 030°45'0 0.0
2017-May-15 22:30N 46°29' E 030°45'0 0.0
2017-May-15 22:00N 46°29' E 030°45'0 0.0
2017-May-15 21:30N 46°29' E 030°45'0 0.0
2017-May-15 21:00N 46°29' E 030°45'0 0.0
2017-May-15 20:30N 46°29' E 030°45'0 0.0
2017-May-15 20:00N 46°29' E 030°45'0 0.0
2017-May-15 19:30N 46°29' E 030°45'0 0.0
2017-May-15 19:01N 46°29' E 030°45'0 0.0
2017-May-15 18:28N 46°29' E 030°45'0 0.0
2017-May-15 17:59N 46°29' E 030°45'0 0.0
2017-May-15 17:31N 46°29' E 030°45'0 0.0
2017-May-15 16:50N 46°29' E 030°45'0 0.0
2017-May-15 16:30N 46°29' E 030°45'0 0.0
2017-May-15 16:00N 46°29' E 030°45'0 0.0
2017-May-15 15:30N 46°29' E 030°45'0 0.0
2017-May-15 15:00N 46°29' E 030°45'0 0.0
2017-May-15 14:30N 46°29' E 030°45'0 0.0
2017-May-15 13:31N 46°29' E 030°45'0 0.0
2017-May-15 13:00N 46°29' E 030°45'0 0.0
2017-May-15 12:30N 46°29' E 030°45'0 0.0
2017-May-15 12:00N 46°29' E 030°45'0 0.0
2017-May-15 11:30N 46°29' E 030°45'0 0.0
2017-May-15 11:00N 46°29' E 030°45'0 0.0
2017-May-15 10:30N 46°29' E 030°45'0 0.0
2017-May-15 10:00N 46°29' E 030°45'0 0.0
2017-May-15 09:30N 46°29' E 030°45'0 0.0
2017-May-15 09:00N 46°29' E 030°45'0 0.0
2017-May-15 08:31N 46°29' E 030°45'0 0.0
2017-May-15 07:59N 46°29' E 030°45'0 0.0
2017-May-15 07:30N 46°29' E 030°45'0 0.0
2017-May-15 07:01N 46°29' E 030°45'1 1.1
2017-May-15 06:30N 46°30' E 030°45'1 2.3
2017-May-15 06:00N 46°31' E 030°46'0 0.0
2017-May-15 05:30N 46°31' E 030°46'0 0.0
2017-May-15 05:00N 46°31' E 030°46'0 0.0
2017-May-15 04:30N 46°31' E 030°46'0 0.8
2017-May-15 04:00N 46°31' E 030°47'2 3.5
2017-May-15 03:27N 46°31' E 030°50'37 3.6
2017-May-14 17:00N 46°36' E 031°43'0 0.0
2017-May-14 16:25N 46°36' E 031°43'0 0.0
2017-May-14 15:32N 46°36' E 031°43'0 0.1
2017-May-14 15:29N 46°36' E 031°43'6 0.8
2017-May-14 08:07N 46°35' E 031°51'1 6.5
2017-May-14 08:00N 46°35' E 031°52'3 6.6
2017-May-14 07:29N 46°34' E 031°57'140 2.7
2017-May-12 04:22N 47°35' E 035°02'1 4.0
2017-May-12 04:00N 47°36' E 035°03'3 4.1
2017-May-12 03:15N 47°38' E 035°05'1 4.3
2017-May-12 03:00N 47°39' E 035°07'2 4.4
2017-May-12 02:30N 47°41' E 035°08'2 4.4
2017-May-12 02:00N 47°43' E 035°09'2 4.3
2017-May-12 01:30N 47°45' E 035°10'2 4.2
2017-May-12 01:00N 47°47' E 035°10'1 2.7
2017-May-12 00:30N 47°49' E 035°09'0 0.1
2017-May-12 00:00N 47°49' E 035°09'0 0.0
2017-May-11 23:30N 47°49' E 035°09'0 0.0
2017-May-11 23:00N 47°49' E 035°09'0 0.0
2017-May-11 22:30N 47°49' E 035°09'0 0.1
2017-May-11 22:00N 47°49' E 035°09'2 3.7
2017-May-11 21:30N 47°50' E 035°07'2 4.5
2017-May-11 21:00N 47°52' E 035°05'0 0.9
2017-May-11 20:30N 47°52' E 035°06'0 0.3
2017-May-11 20:00N 47°52' E 035°06'1 1.7
2017-May-11 19:30N 47°53' E 035°06'0 0.7
2017-May-11 19:00N 47°53' E 035°06'2 4.0
2017-May-11 18:30N 47°55' E 035°07'2 4.2
2017-May-11 18:00N 47°57' E 035°07'2 4.2
2017-May-11 17:30N 47°59' E 035°08'2 4.1
2017-May-11 17:00N 48°01' E 035°08'2 4.2
2017-May-11 16:30N 48°03' E 035°06'  

Dump ship's entire track history